首页
METAR-TAF:

METAR-TAF

机场 :

成都, 中华人民共和国

成都双流国际机场

纬度: 30-40N, 经度: 104-01E, 海拔: 508米

当前天气观测

该预报发布于18分钟前的03:00 UTC
风速4节,风向东转东北,在东转东南之间变化
温度 10°C
湿度 66%
气压 1022 hPa
能見度: 5000

METAR: ZUUU 200300Z 07002MPS 010V110 5000 HZ NSC 10/04 Q1022 NOSIG

时间: 11:18 (03:18 UTC)

预报

该预报发布于7小时和10分钟前的20:08 UTC
预报有效从20日的 00点(UTC)到 20日的 24点(UTC)
风速6节,风向南转西南
能見度: 2300
散云层高于5000英尺
轻雾
成为
从 20日的 02点(UTC)到 20日的 03点(UTC)
能見度: 5000

TAF: ZUUU 192008Z 2000/2024 20003MPS 2300 BR SCT050 TX12/2007Z TN06/2023Z BECMG 2002/2003 5000

超过4000个机场的气象观测和天气预报(METAR&TAF报告)。

可查询的气象台以黄色和红色小点在地图上表示。

将鼠标移到小点上方,可查看气象台名称。

然后点击查看天气观测和预报。

如需切换地图:点击带黑十字的绿色按钮放大地图;点击带横线的绿色按钮缩小地图;或者点击绿色箭头查看邻近地区的地图。


METAR-TAF: